createdAt,value
2018-02-23T00:00:30.709Z,1.00
2018-02-23T00:02:58.989Z,0.80
2018-02-23T00:05:26.617Z,0.80
2018-02-23T00:07:54.136Z,0.80
2018-02-23T00:10:21.663Z,0.80
2018-02-23T00:12:49.931Z,0.70
2018-02-23T00:15:18.263Z,0.70
2018-02-23T00:17:45.873Z,0.60
2018-02-23T00:20:14.144Z,0.70
2018-02-23T00:22:42.454Z,0.60
2018-02-23T00:25:09.994Z,0.60
2018-02-23T00:27:37.526Z,0.50
2018-02-23T00:30:05.055Z,0.40
2018-02-23T00:32:32.580Z,0.50
2018-02-23T00:35:00.235Z,0.50
2018-02-23T00:37:28.130Z,0.40
2018-02-23T00:39:55.640Z,0.40
2018-02-23T00:42:23.142Z,0.20
2018-02-23T00:44:50.651Z,0.20
2018-02-23T00:47:18.170Z,0.20
2018-02-23T00:49:45.698Z,0.00
2018-02-23T00:52:13.979Z,-0.10
2018-02-23T00:54:42.253Z,-0.10
2018-02-23T00:57:10.563Z,-0.10
2018-02-23T00:59:38.302Z,-0.20
2018-02-23T01:02:05.830Z,-0.10
2018-02-23T01:04:33.431Z,-0.10
2018-02-23T01:07:01.833Z,-0.20
2018-02-23T01:09:29.789Z,-0.20
2018-02-23T01:11:57.326Z,-0.20
2018-02-23T01:14:25.724Z,-0.30
2018-02-23T01:16:53.237Z,-0.30
2018-02-23T01:19:20.774Z,-0.30
2018-02-23T01:21:48.485Z,-0.40
2018-02-23T01:24:16.178Z,-0.40
2018-02-23T01:26:43.699Z,-0.40
2018-02-23T01:29:12.088Z,-0.50
2018-02-23T01:31:39.598Z,-0.50
2018-02-23T01:34:07.140Z,-0.50
2018-02-23T01:36:34.668Z,-0.50
2018-02-23T01:39:02.219Z,-0.60
2018-02-23T01:41:30.512Z,-0.60
2018-02-23T01:43:58.063Z,-0.60
2018-02-23T01:46:25.626Z,-0.70
2018-02-23T01:48:53.920Z,-0.80
2018-02-23T01:51:21.521Z,-0.80
2018-02-23T01:53:49.040Z,-1.00
2018-02-23T01:56:16.571Z,-0.90
2018-02-23T01:58:44.154Z,-0.80
2018-02-23T02:01:11.686Z,-0.80
2018-02-23T02:03:39.252Z,-0.90
2018-02-23T02:06:06.790Z,-1.00
2018-02-23T02:08:35.816Z,-1.10
2018-02-23T02:11:04.215Z,-1.00
2018-02-23T02:13:31.866Z,-1.10
2018-02-23T02:15:59.381Z,-1.10
2018-02-23T02:18:27.000Z,-1.00
2018-02-23T02:20:54.553Z,-1.10
2018-02-23T02:23:22.082Z,-1.20
2018-02-23T02:25:49.759Z,-1.30
2018-02-23T02:28:17.276Z,-1.30
2018-02-23T02:30:44.887Z,-1.30
2018-02-23T02:33:12.451Z,-1.20
2018-02-23T02:35:39.972Z,-1.30
2018-02-23T02:38:07.491Z,-1.30
2018-02-23T02:40:35.020Z,-1.30
2018-02-23T02:43:03.438Z,-1.40
2018-02-23T02:45:30.942Z,-1.50
2018-02-23T02:47:59.230Z,-1.50
2018-02-23T02:50:27.538Z,-1.50
2018-02-23T02:52:55.051Z,-1.50
2018-02-23T02:55:23.340Z,-1.60
2018-02-23T02:57:50.851Z,-1.60
2018-02-23T03:00:18.359Z,-1.60
2018-02-23T03:02:45.891Z,-1.50
2018-02-23T03:05:13.416Z,-1.50
2018-02-23T03:07:40.928Z,-1.60
2018-02-23T03:10:09.242Z,-1.60
2018-02-23T03:12:36.982Z,-1.70
2018-02-23T03:15:04.537Z,-1.60
2018-02-23T03:17:32.819Z,-1.60
2018-02-23T03:20:01.226Z,-1.70
2018-02-23T03:22:28.744Z,-1.70
2018-02-23T03:24:57.049Z,-1.80
2018-02-23T03:27:24.571Z,-1.80
2018-02-23T03:29:52.087Z,-1.80
2018-02-23T03:32:19.599Z,-1.80
2018-02-23T03:34:47.896Z,-1.90
2018-02-23T03:37:15.399Z,-2.00
2018-02-23T03:39:42.914Z,-1.90
2018-02-23T03:42:10.438Z,-2.00
2018-02-23T03:44:37.958Z,-2.00
2018-02-23T03:47:05.492Z,-2.00
2018-02-23T03:49:33.053Z,-2.10
2018-02-23T03:52:01.339Z,-2.20
2018-02-23T03:54:28.857Z,-2.20
2018-02-23T03:56:56.450Z,-2.20
2018-02-23T03:59:23.958Z,-2.30
2018-02-23T04:01:51.488Z,-2.30
2018-02-23T04:04:19.083Z,-2.20
2018-02-23T04:06:46.631Z,-2.20
2018-02-23T04:09:14.129Z,-2.20
2018-02-23T04:11:42.433Z,-2.00
2018-02-23T04:14:09.939Z,-2.10
2018-02-23T04:16:37.719Z,-2.00
2018-02-23T04:19:05.237Z,-1.90
2018-02-23T04:21:32.774Z,-1.90
2018-02-23T04:24:00.274Z,-1.90
2018-02-23T04:26:27.930Z,-1.90
2018-02-23T04:28:55.456Z,-1.90
2018-02-23T04:31:22.987Z,-2.00
2018-02-23T04:33:50.761Z,-2.20
2018-02-23T04:36:19.060Z,-2.30
2018-02-23T04:38:46.580Z,-2.30
2018-02-23T04:41:14.115Z,-2.30
2018-02-23T04:43:41.657Z,-2.30
2018-02-23T04:46:09.162Z,-2.40
2018-02-23T04:48:36.879Z,-2.40
2018-02-23T04:51:04.401Z,-2.50
2018-02-23T04:53:32.680Z,-2.60
2018-02-23T04:56:00.996Z,-2.60
2018-02-23T04:58:28.558Z,-2.60
2018-02-23T05:00:56.137Z,-2.60
2018-02-23T05:03:23.692Z,-2.60
2018-02-23T05:05:52.032Z,-2.60
2018-02-23T05:08:19.561Z,-2.60
2018-02-23T05:10:47.244Z,-2.60
2018-02-23T05:13:15.589Z,-2.70
2018-02-23T05:15:43.105Z,-2.70
2018-02-23T05:18:10.689Z,-2.60
2018-02-23T05:20:38.222Z,-2.60
2018-02-23T05:23:05.741Z,-2.60
2018-02-23T05:25:33.270Z,-2.60
2018-02-23T05:28:00.828Z,-2.70
2018-02-23T05:30:28.358Z,-2.70
2018-02-23T05:32:55.864Z,-2.90
2018-02-23T05:35:23.427Z,-2.90
2018-02-23T05:37:50.977Z,-2.90
2018-02-23T05:40:18.490Z,-2.90
2018-02-23T05:42:46.003Z,-3.00
2018-02-23T05:45:13.527Z,-3.00
2018-02-23T05:47:41.050Z,-2.90
2018-02-23T05:50:09.346Z,-2.90
2018-02-23T05:52:36.879Z,-2.90
2018-02-23T05:55:04.400Z,-2.90
2018-02-23T05:57:31.914Z,-3.00
2018-02-23T06:00:00.216Z,-3.00
2018-02-23T06:02:27.788Z,-3.00
2018-02-23T06:04:55.301Z,-3.10
2018-02-23T06:07:23.590Z,-3.30
2018-02-23T06:09:52.473Z,-3.30
2018-02-23T06:12:20.781Z,-3.30
2018-02-23T06:14:48.502Z,-3.40
2018-02-23T06:17:21.728Z,-3.30
2018-02-23T06:19:54.979Z,-3.40
2018-02-23T06:22:22.491Z,-3.40
2018-02-23T06:24:50.067Z,-3.50
2018-02-23T06:27:17.580Z,-3.40
2018-02-23T06:29:45.929Z,-3.50
2018-02-23T06:32:13.480Z,-3.50
2018-02-23T06:34:40.991Z,-3.50
2018-02-23T06:37:08.698Z,-3.40
2018-02-23T06:39:36.211Z,-3.50
2018-02-23T06:42:03.841Z,-3.40
2018-02-23T06:44:31.356Z,-3.40
2018-02-23T06:47:08.711Z,-3.40
2018-02-23T06:49:37.016Z,-3.40
2018-02-23T06:52:04.537Z,-3.50
2018-02-23T06:54:32.056Z,-3.50
2018-02-23T06:56:59.578Z,-3.50
2018-02-23T06:59:27.117Z,-3.40
2018-02-23T07:01:54.626Z,-3.50
2018-02-23T07:04:22.203Z,-3.50
2018-02-23T07:06:49.774Z,-3.50
2018-02-23T07:09:17.308Z,-3.50
2018-02-23T07:11:44.820Z,-3.60
2018-02-23T07:14:12.413Z,-3.60
2018-02-23T07:16:39.927Z,-3.60
2018-02-23T07:19:07.455Z,-3.50
2018-02-23T07:21:34.990Z,-3.50
2018-02-23T07:24:02.569Z,-3.60
2018-02-23T07:26:33.213Z,-3.60
2018-02-23T07:29:00.827Z,-3.50
2018-02-23T07:31:28.359Z,-3.40
2018-02-23T07:33:56.050Z,-3.40
2018-02-23T07:36:24.403Z,-3.40
2018-02-23T07:38:51.915Z,-3.50
2018-02-23T07:41:19.443Z,-3.50
2018-02-23T07:43:46.987Z,-3.50
2018-02-23T07:46:15.408Z,-3.40
2018-02-23T07:48:42.946Z,-3.40
2018-02-23T07:51:11.284Z,-3.30
2018-02-23T07:53:38.819Z,-3.30
2018-02-23T07:56:06.404Z,-3.20
2018-02-23T07:58:33.933Z,-3.20
2018-02-23T08:01:01.454Z,-3.20
2018-02-23T08:03:29.742Z,-3.10
2018-02-23T08:05:58.143Z,-2.80
2018-02-23T08:08:25.665Z,-2.80
2018-02-23T08:10:54.041Z,-2.50
2018-02-23T08:13:22.517Z,-2.60
2018-02-23T08:15:50.222Z,-2.60
2018-02-23T08:18:17.745Z,-2.70
2018-02-23T08:20:46.073Z,-2.60
2018-02-23T08:23:13.591Z,-2.60
2018-02-23T08:25:41.103Z,-2.40
2018-02-23T08:28:08.635Z,-2.50
2018-02-23T08:30:36.153Z,-2.60
2018-02-23T08:33:03.708Z,-2.60
2018-02-23T08:35:31.216Z,-2.60
2018-02-23T08:37:58.825Z,-2.50
2018-02-23T08:40:26.348Z,-2.40
2018-02-23T08:42:53.922Z,-2.50
2018-02-23T08:45:21.458Z,-2.40
2018-02-23T08:47:49.080Z,-2.40
2018-02-23T08:50:17.391Z,-2.40
2018-02-23T08:52:44.980Z,-2.50
2018-02-23T08:55:12.824Z,-2.40
2018-02-23T08:57:40.336Z,-2.40
2018-02-23T09:13:31.293Z,-2.10
2018-02-23T09:15:58.841Z,-2.10
2018-02-23T09:18:27.148Z,-2.00
2018-02-23T09:20:54.680Z,-2.00
2018-02-23T09:23:22.203Z,-1.90
2018-02-23T09:25:49.732Z,-1.70
2018-02-23T09:28:17.329Z,-1.50
2018-02-23T09:30:44.901Z,-1.30
2018-02-23T09:33:12.433Z,-1.30
2018-02-23T09:35:39.975Z,-1.20
2018-02-23T09:38:07.565Z,-1.00
2018-02-23T09:40:35.159Z,-0.80
2018-02-23T09:43:02.675Z,-0.90
2018-02-23T09:45:30.190Z,-1.10
2018-02-23T09:47:58.468Z,-1.00
2018-02-23T09:50:25.985Z,-1.00
2018-02-23T09:52:53.529Z,-1.00
2018-02-23T09:55:21.063Z,-1.00
2018-02-23T09:57:48.606Z,-1.00
2018-02-23T10:00:16.134Z,-1.00
2018-02-23T10:02:43.654Z,-0.90
2018-02-23T10:05:11.198Z,-0.90
2018-02-23T10:07:38.742Z,-0.90
2018-02-23T10:10:07.019Z,-0.90
2018-02-23T10:12:35.325Z,-0.90
2018-02-23T10:15:02.888Z,-1.00
2018-02-23T10:17:30.608Z,-0.80
2018-02-23T10:19:58.899Z,-0.60
2018-02-23T10:22:27.202Z,-0.50
2018-02-23T10:24:54.800Z,-0.50
2018-02-23T10:27:22.322Z,-0.40
2018-02-23T10:29:49.837Z,-0.50
2018-02-23T10:32:17.354Z,-0.20
2018-02-23T10:34:44.913Z,0.30
2018-02-23T10:37:12.522Z,1.30
2018-02-23T10:39:40.800Z,3.90
2018-02-23T10:42:09.111Z,5.60
2018-02-23T10:44:36.626Z,5.50
2018-02-23T10:47:04.134Z,7.20
2018-02-23T10:49:31.667Z,8.30
2018-02-23T10:51:59.967Z,10.00
2018-02-23T10:54:27.499Z,10.00
2018-02-23T10:56:55.027Z,10.50
2018-02-23T10:59:22.545Z,10.20
2018-02-23T11:01:50.065Z,9.80
2018-02-23T11:04:17.608Z,8.60
2018-02-23T11:06:45.123Z,9.40
2018-02-23T11:09:12.619Z,9.00
2018-02-23T11:28:56.499Z,10.50
2018-02-23T11:31:24.010Z,10.90
2018-02-23T11:33:51.571Z,12.70
2018-02-23T11:36:19.091Z,13.10
2018-02-23T11:38:47.380Z,13.60
2018-02-23T11:41:14.912Z,13.60
2018-02-23T11:43:42.438Z,13.00
2018-02-23T11:46:09.971Z,12.80
2018-02-23T11:48:37.542Z,11.50
2018-02-23T11:51:05.124Z,11.40
2018-02-23T11:53:32.638Z,11.40
2018-02-23T11:56:00.198Z,12.00
2018-02-23T11:58:27.750Z,11.70
2018-02-23T12:00:55.299Z,11.30
2018-02-23T12:03:22.825Z,10.50
2018-02-23T12:05:50.342Z,11.60
2018-02-23T12:08:17.863Z,11.10
2018-02-23T12:10:45.359Z,9.70
2018-02-23T12:13:12.872Z,8.70
2018-02-23T12:15:40.400Z,9.30
2018-02-23T12:18:07.923Z,9.90
2018-02-23T12:20:36.196Z,11.60
2018-02-23T12:23:04.512Z,13.00
2018-02-23T12:25:32.113Z,13.00
2018-02-23T12:27:59.636Z,14.40
2018-02-23T12:30:27.212Z,13.10
2018-02-23T12:32:54.737Z,11.80
2018-02-23T12:35:22.296Z,11.90
2018-02-23T12:37:49.809Z,13.00
2018-02-23T12:40:17.339Z,14.40
2018-02-23T12:42:44.893Z,13.20
2018-02-23T12:45:12.423Z,14.60
2018-02-23T12:47:40.727Z,13.80
2018-02-23T12:50:08.261Z,13.80
2018-02-23T12:52:35.848Z,14.40
2018-02-23T12:55:03.375Z,14.50
2018-02-23T12:57:30.918Z,15.80
2018-02-23T12:59:58.450Z,15.90
2018-02-23T13:02:25.979Z,15.70
2018-02-23T13:04:53.559Z,14.40
2018-02-23T13:07:21.079Z,14.30
2018-02-23T13:09:48.594Z,14.30
2018-02-23T13:12:16.161Z,11.80
2018-02-23T13:14:49.398Z,9.80
2018-02-23T13:17:16.905Z,8.50
2018-02-23T13:19:44.403Z,8.20
2018-02-23T13:22:12.702Z,7.40
2018-02-23T13:24:40.215Z,7.30
2018-02-23T13:27:13.534Z,6.40
2018-02-23T13:29:42.207Z,5.20
2018-02-23T13:32:09.740Z,5.20
2018-02-23T13:34:37.269Z,4.90
2018-02-23T13:37:04.822Z,4.80
2018-02-23T13:39:32.361Z,4.70
2018-02-23T13:41:59.877Z,4.20
2018-02-23T13:44:27.387Z,3.80
2018-02-23T13:46:54.884Z,3.70
2018-02-23T13:49:22.393Z,3.50
2018-02-23T13:51:49.921Z,4.80
2018-02-23T13:54:22.998Z,6.50
2018-02-23T13:56:50.509Z,8.70
2018-02-23T13:59:18.022Z,9.70
2018-02-23T14:01:45.526Z,10.40
2018-02-23T14:04:13.845Z,12.70
2018-02-23T14:06:41.382Z,12.60
2018-02-23T14:09:08.912Z,12.40
2018-02-23T14:11:36.540Z,12.00
2018-02-23T14:14:04.044Z,10.70
2018-02-23T14:16:32.339Z,7.80
2018-02-23T14:18:59.855Z,7.70
2018-02-23T14:21:27.368Z,7.10
2018-02-23T14:23:54.881Z,6.50
2018-02-23T14:26:23.170Z,4.70
2018-02-23T14:28:50.746Z,4.70
2018-02-23T14:31:18.255Z,3.90
2018-02-23T14:33:45.831Z,3.30
2018-02-23T14:36:13.344Z,3.70
2018-02-23T14:38:40.878Z,4.10
2018-02-23T14:41:09.140Z,3.50
2018-02-23T14:43:37.423Z,3.70
2018-02-23T14:46:05.714Z,3.80
2018-02-23T14:48:45.144Z,3.70
2018-02-23T14:51:12.671Z,3.70
2018-02-23T14:53:40.204Z,3.50
2018-02-23T14:56:07.710Z,3.30
2018-02-23T14:58:35.249Z,3.40
2018-02-23T15:01:02.764Z,3.30
2018-02-23T15:03:30.287Z,3.30
2018-02-23T15:05:57.802Z,3.30
2018-02-23T15:08:25.341Z,3.00
2018-02-23T15:10:52.915Z,2.70
2018-02-23T15:13:20.442Z,2.60
2018-02-23T15:15:48.823Z,2.60
2018-02-23T15:18:16.344Z,2.60
2018-02-23T15:20:43.852Z,2.50
2018-02-23T15:23:11.365Z,2.40
2018-02-23T15:25:40.401Z,2.00
2018-02-23T15:28:08.042Z,2.00
2018-02-23T15:30:48.071Z,1.60
2018-02-23T15:33:15.658Z,1.60
2018-02-23T15:35:44.064Z,1.40
2018-02-23T15:38:11.628Z,1.40
2018-02-23T15:40:39.162Z,1.40
2018-02-23T15:43:06.745Z,1.40
2018-02-23T15:45:34.287Z,1.50
2018-02-23T15:48:07.396Z,1.50
2018-02-23T15:50:40.728Z,1.50
2018-02-23T15:53:08.268Z,1.50
2018-02-23T15:55:35.793Z,1.40
2018-02-23T15:58:06.911Z,1.30
2018-02-23T16:00:34.435Z,1.30
2018-02-23T16:03:01.941Z,1.30
2018-02-23T16:05:30.235Z,1.20
2018-02-23T16:07:58.546Z,1.10
2018-02-23T16:10:26.117Z,1.00
2018-02-23T16:12:53.662Z,1.10
2018-02-23T16:15:21.196Z,1.10
2018-02-23T16:17:48.742Z,1.10
2018-02-23T16:20:17.025Z,1.00
2018-02-23T16:22:45.298Z,0.90
2018-02-23T16:25:13.580Z,0.90
2018-02-23T16:27:41.881Z,0.80
2018-02-23T16:30:09.408Z,0.80
2018-02-23T16:32:36.966Z,0.80
2018-02-23T16:35:05.243Z,0.70
2018-02-23T16:37:33.530Z,0.60
2018-02-23T16:40:01.804Z,0.60
2018-02-23T16:42:30.121Z,0.60
2018-02-23T16:44:57.643Z,0.60
2018-02-23T16:47:25.176Z,0.50
2018-02-23T16:49:52.692Z,0.50
2018-02-23T16:52:20.211Z,0.50
2018-02-23T16:54:47.710Z,0.40
2018-02-23T16:57:15.223Z,0.40
2018-02-23T16:59:42.738Z,0.30
2018-02-23T17:02:10.246Z,0.30
2018-02-23T17:04:37.822Z,0.30
2018-02-23T17:07:05.356Z,0.20
2018-02-23T17:09:32.873Z,0.20
2018-02-23T17:12:00.387Z,0.30
2018-02-23T17:14:28.723Z,0.10
2018-02-23T17:16:56.332Z,0.10
2018-02-23T17:19:23.881Z,0.10
2018-02-23T17:21:51.455Z,0.00
2018-02-23T17:24:19.728Z,-0.10
2018-02-23T17:26:48.011Z,-0.10
2018-02-23T17:29:16.303Z,-0.20
2018-02-23T17:49:04.415Z,-0.10
2018-02-23T17:51:32.046Z,-0.20
2018-02-23T17:53:59.586Z,-0.20
2018-02-23T17:56:27.109Z,-0.20
2018-02-23T17:58:54.622Z,-0.20
2018-02-23T18:01:22.139Z,-0.30
2018-02-23T18:03:49.654Z,-0.30
2018-02-23T18:06:17.202Z,-0.40
2018-02-23T18:08:44.728Z,-0.30
2018-02-23T18:11:12.248Z,-0.20
2018-02-23T18:13:39.831Z,-0.30
2018-02-23T18:16:07.351Z,-0.40
2018-02-23T18:18:34.875Z,-0.40
2018-02-23T18:21:02.408Z,-0.30
2018-02-23T18:23:29.934Z,-0.40
2018-02-23T18:25:59.853Z,-0.20
2018-02-23T18:28:29.035Z,-0.30
2018-02-23T18:30:56.566Z,-0.30
2018-02-23T18:33:24.088Z,-0.40
2018-02-23T18:35:51.616Z,-0.40
2018-02-23T18:38:19.143Z,-0.40
2018-02-23T18:40:46.672Z,-0.50
2018-02-23T18:43:14.198Z,-0.60
2018-02-23T18:45:41.716Z,-0.60
2018-02-23T18:48:09.247Z,-0.70
2018-02-23T18:50:36.769Z,-0.70
2018-02-23T18:53:04.303Z,-0.70
2018-02-23T18:55:31.853Z,-0.70
2018-02-23T18:58:00.136Z,-0.70
2018-02-23T19:00:27.672Z,-0.70
2018-02-23T19:02:55.237Z,-0.60
2018-02-23T19:05:26.025Z,-0.80
2018-02-23T19:07:53.553Z,-0.80
2018-02-23T19:10:21.138Z,-0.70
2018-02-23T19:12:48.689Z,-0.80
2018-02-23T19:15:16.211Z,-0.80
2018-02-23T19:17:44.569Z,-0.80
2018-02-23T19:20:12.091Z,-0.80
2018-02-23T19:22:39.704Z,-0.70
2018-02-23T19:25:07.235Z,-0.70
2018-02-23T19:27:34.765Z,-0.80
2018-02-23T19:30:02.331Z,-0.70
2018-02-23T19:32:29.888Z,-0.70
2018-02-23T19:34:57.415Z,-0.70
2018-02-23T19:37:24.935Z,-0.70
2018-02-23T19:39:52.612Z,-0.80
2018-02-23T19:42:20.151Z,-0.80
2018-02-23T19:44:47.666Z,-0.90
2018-02-23T19:47:15.207Z,-0.90
2018-02-23T19:49:43.518Z,-0.90
2018-02-23T19:52:11.050Z,-1.00
2018-02-23T19:54:39.297Z,-1.00
2018-02-23T19:57:10.633Z,-1.00
2018-02-23T19:59:38.180Z,-1.00
2018-02-23T20:02:08.525Z,-1.10
2018-02-23T20:04:36.075Z,-1.10
2018-02-23T20:07:12.774Z,-1.10
2018-02-23T20:09:40.367Z,-1.10
2018-02-23T20:12:07.900Z,-1.00
2018-02-23T20:14:35.455Z,-0.90
2018-02-23T20:17:02.986Z,-1.00
2018-02-23T20:19:30.524Z,-0.90
2018-02-23T20:21:58.069Z,-1.00
2018-02-23T20:24:25.599Z,-1.00
2018-02-23T20:26:53.122Z,-1.10
2018-02-23T20:29:21.402Z,-1.20
2018-02-23T20:31:48.933Z,-1.20
2018-02-23T20:34:16.476Z,-1.10
2018-02-23T20:36:44.781Z,-1.10
2018-02-23T20:39:12.300Z,-1.10
2018-02-23T20:41:39.841Z,-1.10
2018-02-23T20:44:07.355Z,-1.20
2018-02-23T20:46:34.878Z,-1.20
2018-02-23T20:49:03.211Z,-1.10
2018-02-23T20:51:30.755Z,-1.20
2018-02-23T20:53:58.946Z,-1.20
2018-02-23T20:56:26.534Z,-1.40
2018-02-23T20:58:54.069Z,-1.30
2018-02-23T21:01:21.596Z,-1.20
2018-02-23T21:03:49.128Z,-1.40
2018-02-23T21:06:17.468Z,-1.40
2018-02-23T21:08:45.937Z,-1.50
2018-02-23T21:11:13.454Z,-1.50
2018-02-23T21:13:40.977Z,-1.50
2018-02-23T21:16:08.520Z,-1.50
2018-02-23T21:18:36.063Z,-1.50
2018-02-23T21:21:03.590Z,-1.60
2018-02-23T21:23:31.876Z,-1.40
2018-02-23T21:26:00.179Z,-1.40
2018-02-23T21:28:27.710Z,-1.50
2018-02-23T21:30:55.237Z,-1.30
2018-02-23T21:33:23.548Z,-1.50
2018-02-23T21:35:51.832Z,-1.40
2018-02-23T21:38:19.360Z,-1.40
2018-02-23T21:40:46.900Z,-1.50
2018-02-23T21:43:14.440Z,-1.70
2018-02-23T21:45:41.955Z,-1.80
2018-02-23T21:48:10.289Z,-2.00
2018-02-23T21:50:37.821Z,-2.10
2018-02-23T21:53:05.360Z,-2.10
2018-02-23T21:55:32.887Z,-2.20
2018-02-23T21:58:00.431Z,-2.40
2018-02-23T22:00:27.968Z,-2.40
2018-02-23T22:02:55.509Z,-2.30
2018-02-23T22:05:23.057Z,-2.30
2018-02-23T22:07:50.575Z,-2.40
2018-02-23T22:10:18.101Z,-2.40
2018-02-23T22:12:45.628Z,-2.30
2018-02-23T22:15:13.183Z,-2.30
2018-02-23T22:17:41.482Z,-2.40
2018-02-23T22:20:08.995Z,-2.40
2018-02-23T22:22:36.532Z,-2.40
2018-02-23T22:25:04.086Z,-2.30
2018-02-23T22:27:31.604Z,-2.30
2018-02-23T22:29:59.149Z,-2.30
2018-02-23T22:32:26.645Z,-2.30
2018-02-23T22:34:54.184Z,-2.40
2018-02-23T22:37:22.478Z,-2.50
2018-02-23T22:39:50.071Z,-2.50
2018-02-23T22:42:17.576Z,-2.50
2018-02-23T22:44:45.881Z,-2.30
2018-02-23T22:47:13.402Z,-2.40
2018-02-23T22:49:40.941Z,-2.30
2018-02-23T22:52:08.478Z,-2.40
2018-02-23T22:54:36.001Z,-2.30
2018-02-23T22:57:04.287Z,-2.30
2018-02-23T22:59:32.571Z,-2.20
2018-02-23T23:02:00.115Z,-2.30
2018-02-23T23:04:27.653Z,-2.10
2018-02-23T23:06:55.167Z,-2.20
2018-02-23T23:09:22.755Z,-2.40
2018-02-23T23:11:50.267Z,-2.40
2018-02-23T23:14:17.799Z,-2.30
2018-02-23T23:16:45.318Z,-2.30
2018-02-23T23:19:12.840Z,-2.30
2018-02-23T23:21:41.118Z,-2.50
2018-02-23T23:24:09.444Z,-2.50
2018-02-23T23:26:37.028Z,-2.50
2018-02-23T23:29:04.545Z,-2.40
2018-02-23T23:31:32.128Z,-2.40
2018-02-23T23:34:00.336Z,-2.40
2018-02-23T23:36:27.894Z,-2.40
2018-02-23T23:38:55.413Z,-2.30
2018-02-23T23:41:22.954Z,-2.40
2018-02-23T23:43:50.472Z,-2.50
2018-02-23T23:46:18.761Z,-2.60
2018-02-23T23:48:47.058Z,-2.60
2018-02-23T23:51:14.598Z,-2.60
2018-02-23T23:53:42.120Z,-2.60
2018-02-23T23:56:09.653Z,-2.70
2018-02-23T23:58:37.170Z,-2.80
